sensor_id;sensor_type;location;lat;lon;timestamp;P1;durP1;ratioP1;P2;durP2;ratioP2
65583;SDS011;70321;43.592;1.456;2023-06-22T00:01:52;0.50;;;0.43;;
65583;SDS011;70321;43.592;1.456;2023-06-22T00:04:17;1.35;;;0.70;;
65583;SDS011;70321;43.592;1.456;2023-06-22T00:06:42;1.05;;;0.80;;
65583;SDS011;70321;43.592;1.456;2023-06-22T00:09:08;6.80;;;0.55;;
65583;SDS011;70321;43.592;1.456;2023-06-22T00:11:35;0.70;;;0.55;;
65583;SDS011;70321;43.592;1.456;2023-06-22T00:14:01;0.98;;;0.50;;
65583;SDS011;70321;43.592;1.456;2023-06-22T00:16:26;0.70;;;0.52;;
65583;SDS011;70321;43.592;1.456;2023-06-22T00:18:52;1.05;;;0.80;;
65583;SDS011;70321;43.592;1.456;2023-06-22T00:21:17;0.82;;;0.50;;
65583;SDS011;70321;43.592;1.456;2023-06-22T00:23:45;2.67;;;0.60;;
65583;SDS011;70321;43.592;1.456;2023-06-22T00:26:11;1.05;;;0.77;;
65583;SDS011;70321;43.592;1.456;2023-06-22T00:28:36;0.70;;;0.57;;
65583;SDS011;70321;43.592;1.456;2023-06-22T00:31:01;1.98;;;0.80;;
65583;SDS011;70321;43.592;1.456;2023-06-22T00:33:27;1.23;;;0.57;;
65583;SDS011;70321;43.592;1.456;2023-06-22T00:35:53;2.33;;;0.80;;
65583;SDS011;70321;43.592;1.456;2023-06-22T00:38:19;1.23;;;0.73;;
65583;SDS011;70321;43.592;1.456;2023-06-22T00:40:45;0.95;;;0.75;;
65583;SDS011;70321;43.592;1.456;2023-06-22T00:43:11;0.65;;;0.63;;
65583;SDS011;70321;43.592;1.456;2023-06-22T00:45:36;2.03;;;0.60;;
65583;SDS011;70321;43.592;1.456;2023-06-22T00:48:02;1.33;;;0.80;;
65583;SDS011;70321;43.592;1.456;2023-06-22T00:50:32;1.38;;;0.65;;
65583;SDS011;70321;43.592;1.456;2023-06-22T00:52:59;1.17;;;0.63;;
65583;SDS011;70321;43.592;1.456;2023-06-22T00:55:29;0.70;;;0.50;;
65583;SDS011;70321;43.592;1.456;2023-06-22T00:57:55;0.85;;;0.70;;
65583;SDS011;70321;43.592;1.456;2023-06-22T01:00:21;0.95;;;0.60;;
65583;SDS011;70321;43.592;1.456;2023-06-22T01:02:49;1.83;;;1.00;;
65583;SDS011;70321;43.592;1.456;2023-06-22T01:05:17;1.88;;;0.90;;
65583;SDS011;70321;43.592;1.456;2023-06-22T01:10:28;2.53;;;1.20;;
65583;SDS011;70321;43.592;1.456;2023-06-22T01:15:51;0.85;;;0.55;;
65583;SDS011;70321;43.592;1.456;2023-06-22T01:18:21;2.20;;;0.85;;
65583;SDS011;70321;43.592;1.456;2023-06-22T01:20:50;0.88;;;0.60;;
65583;SDS011;70321;43.592;1.456;2023-06-22T01:26:16;1.80;;;0.70;;
65583;SDS011;70321;43.592;1.456;2023-06-22T01:28:45;1.20;;;0.70;;
65583;SDS011;70321;43.592;1.456;2023-06-22T01:31:13;0.98;;;0.63;;
65583;SDS011;70321;43.592;1.456;2023-06-22T01:33:46;0.77;;;0.47;;
65583;SDS011;70321;43.592;1.456;2023-06-22T01:36:21;1.80;;;0.40;;
65583;SDS011;70321;43.592;1.456;2023-06-22T01:38:48;1.08;;;0.70;;
65583;SDS011;70321;43.592;1.456;2023-06-22T01:41:15;0.50;;;0.40;;
65583;SDS011;70321;43.592;1.456;2023-06-22T01:43:42;1.77;;;0.40;;
65583;SDS011;70321;43.592;1.456;2023-06-22T01:46:09;1.02;;;0.52;;
65583;SDS011;70321;43.592;1.456;2023-06-22T01:48:35;0.95;;;0.40;;
65583;SDS011;70321;43.592;1.456;2023-06-22T01:51:01;0.52;;;0.30;;
65583;SDS011;70321;43.592;1.456;2023-06-22T01:53:27;0.90;;;0.43;;
65583;SDS011;70321;43.592;1.456;2023-06-22T01:55:52;0.75;;;0.43;;
65583;SDS011;70321;43.592;1.456;2023-06-22T01:58:18;0.52;;;0.32;;
65583;SDS011;70321;43.592;1.456;2023-06-22T02:00:56;0.40;;;0.30;;
65583;SDS011;70321;43.592;1.456;2023-06-22T02:04:02;1.13;;;0.40;;
65583;SDS011;70321;43.592;1.456;2023-06-22T02:06:31;0.95;;;0.40;;
65583;SDS011;70321;43.592;1.456;2023-06-22T02:09:03;1.55;;;0.25;;
65583;SDS011;70321;43.592;1.456;2023-06-22T02:11:33;0.47;;;0.30;;
65583;SDS011;70321;43.592;1.456;2023-06-22T02:14:01;0.40;;;0.30;;
65583;SDS011;70321;43.592;1.456;2023-06-22T02:16:27;0.55;;;0.30;;
65583;SDS011;70321;43.592;1.456;2023-06-22T02:18:57;0.98;;;0.43;;
65583;SDS011;70321;43.592;1.456;2023-06-22T02:21:28;3.42;;;0.40;;
65583;SDS011;70321;43.592;1.456;2023-06-22T02:23:54;1.05;;;0.40;;
65583;SDS011;70321;43.592;1.456;2023-06-22T02:26:19;0.25;;;0.25;;
65583;SDS011;70321;43.592;1.456;2023-06-22T02:28:45;0.32;;;0.20;;
65583;SDS011;70321;43.592;1.456;2023-06-22T02:31:11;0.50;;;0.40;;
65583;SDS011;70321;43.592;1.456;2023-06-22T02:33:36;0.40;;;0.38;;
65583;SDS011;70321;43.592;1.456;2023-06-22T02:36:02;0.55;;;0.30;;
65583;SDS011;70321;43.592;1.456;2023-06-22T02:38:30;0.75;;;0.32;;
65583;SDS011;70321;43.592;1.456;2023-06-22T02:40:58;2.75;;;0.30;;
65583;SDS011;70321;43.592;1.456;2023-06-22T02:43:23;0.20;;;0.20;;
65583;SDS011;70321;43.592;1.456;2023-06-22T02:45:50;2.08;;;0.38;;
65583;SDS011;70321;43.592;1.456;2023-06-22T02:48:15;0.98;;;0.30;;
65583;SDS011;70321;43.592;1.456;2023-06-22T02:50:40;0.57;;;0.40;;
65583;SDS011;70321;43.592;1.456;2023-06-22T02:53:06;0.50;;;0.30;;
65583;SDS011;70321;43.592;1.456;2023-06-22T02:55:31;1.65;;;0.40;;
65583;SDS011;70321;43.592;1.456;2023-06-22T02:57:57;0.20;;;0.20;;
65583;SDS011;70321;43.592;1.456;2023-06-22T03:00:24;0.30;;;0.20;;
65583;SDS011;70321;43.592;1.456;2023-06-22T03:02:55;0.73;;;0.50;;
65583;SDS011;70321;43.592;1.456;2023-06-22T03:05:21;1.10;;;0.22;;
65583;SDS011;70321;43.592;1.456;2023-06-22T03:07:46;0.13;;;0.13;;
65583;SDS011;70321;43.592;1.456;2023-06-22T03:10:12;0.40;;;0.30;;
65583;SDS011;70321;43.592;1.456;2023-06-22T03:12:39;0.10;;;0.10;;
65583;SDS011;70321;43.592;1.456;2023-06-22T03:15:05;0.20;;;0.15;;
65583;SDS011;70321;43.592;1.456;2023-06-22T03:17:31;0.32;;;0.30;;
65583;SDS011;70321;43.592;1.456;2023-06-22T03:19:58;2.47;;;0.40;;
65583;SDS011;70321;43.592;1.456;2023-06-22T03:22:23;1.30;;;0.40;;
65583;SDS011;70321;43.592;1.456;2023-06-22T03:24:49;0.63;;;0.28;;
65583;SDS011;70321;43.592;1.456;2023-06-22T03:27:14;0.32;;;0.30;;
65583;SDS011;70321;43.592;1.456;2023-06-22T03:29:39;0.52;;;0.40;;
65583;SDS011;70321;43.592;1.456;2023-06-22T03:32:05;0.75;;;0.32;;
65583;SDS011;70321;43.592;1.456;2023-06-22T03:34:31;0.17;;;0.15;;
65583;SDS011;70321;43.592;1.456;2023-06-22T03:37:01;1.38;;;0.55;;
65583;SDS011;70321;43.592;1.456;2023-06-22T03:39:26;1.70;;;0.68;;
65583;SDS011;70321;43.592;1.456;2023-06-22T03:41:52;1.77;;;0.50;;
65583;SDS011;70321;43.592;1.456;2023-06-22T03:44:17;0.57;;;0.47;;
65583;SDS011;70321;43.592;1.456;2023-06-22T03:46:42;1.00;;;0.60;;
65583;SDS011;70321;43.592;1.456;2023-06-22T03:49:08;0.52;;;0.38;;
65583;SDS011;70321;43.592;1.456;2023-06-22T03:51:33;1.70;;;0.90;;
65583;SDS011;70321;43.592;1.456;2023-06-22T03:53:59;0.60;;;0.38;;
65583;SDS011;70321;43.592;1.456;2023-06-22T03:56:24;1.40;;;0.43;;
65583;SDS011;70321;43.592;1.456;2023-06-22T03:58:50;0.82;;;0.47;;
65583;SDS011;70321;43.592;1.456;2023-06-22T04:01:15;0.88;;;0.50;;
65583;SDS011;70321;43.592;1.456;2023-06-22T04:03:42;0.73;;;0.57;;
65583;SDS011;70321;43.592;1.456;2023-06-22T04:06:08;1.90;;;1.05;;
65583;SDS011;70321;43.592;1.456;2023-06-22T04:08:33;0.85;;;0.57;;
65583;SDS011;70321;43.592;1.456;2023-06-22T04:10:59;1.75;;;0.75;;
65583;SDS011;70321;43.592;1.456;2023-06-22T04:13:24;0.90;;;0.57;;
65583;SDS011;70321;43.592;1.456;2023-06-22T04:15:50;0.82;;;0.70;;
65583;SDS011;70321;43.592;1.456;2023-06-22T04:18:15;1.55;;;0.77;;
65583;SDS011;70321;43.592;1.456;2023-06-22T04:20:41;1.42;;;1.00;;
65583;SDS011;70321;43.592;1.456;2023-06-22T04:23:06;1.02;;;0.77;;
65583;SDS011;70321;43.592;1.456;2023-06-22T04:25:31;1.50;;;0.68;;
65583;SDS011;70321;43.592;1.456;2023-06-22T04:27:57;1.52;;;0.77;;
65583;SDS011;70321;43.592;1.456;2023-06-22T04:30:22;0.73;;;0.63;;
65583;SDS011;70321;43.592;1.456;2023-06-22T04:32:48;1.23;;;0.77;;
65583;SDS011;70321;43.592;1.456;2023-06-22T04:35:25;0.70;;;0.60;;
65583;SDS011;70321;43.592;1.456;2023-06-22T04:37:53;1.55;;;0.70;;
65583;SDS011;70321;43.592;1.456;2023-06-22T04:40:21;1.05;;;0.77;;
65583;SDS011;70321;43.592;1.456;2023-06-22T04:42:47;0.70;;;0.43;;
65583;SDS011;70321;43.592;1.456;2023-06-22T04:47:43;1.38;;;0.80;;
65583;SDS011;70321;43.592;1.456;2023-06-22T04:50:10;1.73;;;0.75;;
65583;SDS011;70321;43.592;1.456;2023-06-22T04:52:36;1.58;;;0.60;;
65583;SDS011;70321;43.592;1.456;2023-06-22T04:55:02;1.05;;;0.68;;
65583;SDS011;70321;43.592;1.456;2023-06-22T04:57:28;1.55;;;1.02;;
65583;SDS011;70321;43.592;1.456;2023-06-22T04:59:58;2.65;;;1.10;;
65583;SDS011;70321;43.592;1.456;2023-06-22T05:02:36;1.55;;;0.80;;
65583;SDS011;70321;43.592;1.456;2023-06-22T05:05:02;1.98;;;0.90;;
65583;SDS011;70321;43.592;1.456;2023-06-22T05:07:32;1.77;;;0.77;;
65583;SDS011;70321;43.592;1.456;2023-06-22T05:09:58;1.05;;;0.77;;
65583;SDS011;70321;43.592;1.456;2023-06-22T05:12:23;2.50;;;1.02;;
65583;SDS011;70321;43.592;1.456;2023-06-22T05:14:52;1.88;;;1.27;;
65583;SDS011;70321;43.592;1.456;2023-06-22T05:17:17;2.17;;;0.90;;
65583;SDS011;70321;43.592;1.456;2023-06-22T05:19:44;2.53;;;0.90;;
65583;SDS011;70321;43.592;1.456;2023-06-22T05:22:13;2.33;;;0.90;;
65583;SDS011;70321;43.592;1.456;2023-06-22T05:24:42;2.55;;;0.95;;
65583;SDS011;70321;43.592;1.456;2023-06-22T05:27:09;1.05;;;0.70;;
65583;SDS011;70321;43.592;1.456;2023-06-22T05:29:35;1.75;;;0.88;;
65583;SDS011;70321;43.592;1.456;2023-06-22T05:32:01;2.25;;;1.33;;
65583;SDS011;70321;43.592;1.456;2023-06-22T05:34:27;5.55;;;1.15;;
65583;SDS011;70321;43.592;1.456;2023-06-22T05:36:53;2.08;;;1.08;;
65583;SDS011;70321;43.592;1.456;2023-06-22T05:39:18;1.33;;;0.88;;
65583;SDS011;70321;43.592;1.456;2023-06-22T05:41:44;1.65;;;0.93;;
65583;SDS011;70321;43.592;1.456;2023-06-22T05:44:11;2.38;;;1.10;;
65583;SDS011;70321;43.592;1.456;2023-06-22T05:46:36;2.72;;;1.25;;
65583;SDS011;70321;43.592;1.456;2023-06-22T05:49:02;1.65;;;1.10;;
65583;SDS011;70321;43.592;1.456;2023-06-22T05:51:27;1.95;;;1.20;;
65583;SDS011;70321;43.592;1.456;2023-06-22T05:53:53;2.60;;;1.23;;
65583;SDS011;70321;43.592;1.456;2023-06-22T05:56:18;2.15;;;1.17;;
65583;SDS011;70321;43.592;1.456;2023-06-22T05:58:45;2.60;;;1.40;;
65583;SDS011;70321;43.592;1.456;2023-06-22T06:01:11;1.75;;;1.38;;
65583;SDS011;70321;43.592;1.456;2023-06-22T06:03:36;2.28;;;1.20;;
65583;SDS011;70321;43.592;1.456;2023-06-22T06:06:06;2.58;;;1.10;;
65583;SDS011;70321;43.592;1.456;2023-06-22T06:08:36;1.77;;;1.20;;
65583;SDS011;70321;43.592;1.456;2023-06-22T06:11:02;2.40;;;1.38;;
65583;SDS011;70321;43.592;1.456;2023-06-22T06:13:28;4.60;;;1.38;;
65583;SDS011;70321;43.592;1.456;2023-06-22T06:15:53;2.58;;;1.25;;
65583;SDS011;70321;43.592;1.456;2023-06-22T06:18:20;7.43;;;1.40;;
65583;SDS011;70321;43.592;1.456;2023-06-22T06:20:46;2.30;;;1.50;;
65583;SDS011;70321;43.592;1.456;2023-06-22T06:23:11;2.55;;;1.35;;
65583;SDS011;70321;43.592;1.456;2023-06-22T06:25:37;2.92;;;1.60;;
65583;SDS011;70321;43.592;1.456;2023-06-22T06:28:03;2.45;;;1.33;;
65583;SDS011;70321;43.592;1.456;2023-06-22T06:30:30;1.75;;;1.23;;
65583;SDS011;70321;43.592;1.456;2023-06-22T06:32:56;2.60;;;1.50;;
65583;SDS011;70321;43.592;1.456;2023-06-22T06:35:21;2.17;;;1.50;;
65583;SDS011;70321;43.592;1.456;2023-06-22T06:37:48;1.67;;;1.25;;
65583;SDS011;70321;43.592;1.456;2023-06-22T06:40:14;1.73;;;1.02;;
65583;SDS011;70321;43.592;1.456;2023-06-22T06:42:41;2.17;;;1.23;;
65583;SDS011;70321;43.592;1.456;2023-06-22T06:45:11;3.20;;;1.45;;
65583;SDS011;70321;43.592;1.456;2023-06-22T06:47:37;3.58;;;1.13;;
65583;SDS011;70321;43.592;1.456;2023-06-22T06:50:04;3.15;;;1.13;;
65583;SDS011;70321;43.592;1.456;2023-06-22T06:52:30;2.50;;;1.27;;
65583;SDS011;70321;43.592;1.456;2023-06-22T06:54:56;4.40;;;1.65;;
65583;SDS011;70321;43.592;1.456;2023-06-22T06:57:23;2.50;;;1.50;;
65583;SDS011;70321;43.592;1.456;2023-06-22T06:59:54;5.63;;;1.50;;
65583;SDS011;70321;43.592;1.456;2023-06-22T07:02:21;4.57;;;1.50;;
65583;SDS011;70321;43.592;1.456;2023-06-22T07:04:46;2.50;;;1.27;;
65583;SDS011;70321;43.592;1.456;2023-06-22T07:07:12;1.63;;;1.23;;
65583;SDS011;70321;43.592;1.456;2023-06-22T07:09:37;2.17;;;1.23;;
65583;SDS011;70321;43.592;1.456;2023-06-22T07:12:03;1.63;;;1.20;;
65583;SDS011;70321;43.592;1.456;2023-06-22T07:14:29;1.42;;;1.00;;
65583;SDS011;70321;43.592;1.456;2023-06-22T07:16:56;3.22;;;1.02;;
65583;SDS011;70321;43.592;1.456;2023-06-22T07:19:25;3.60;;;1.10;;
65583;SDS011;70321;43.592;1.456;2023-06-22T07:21:52;5.90;;;1.23;;
65583;SDS011;70321;43.592;1.456;2023-06-22T07:24:21;2.28;;;1.33;;
65583;SDS011;70321;43.592;1.456;2023-06-22T07:26:48;1.10;;;0.90;;
65583;SDS011;70321;43.592;1.456;2023-06-22T07:29:15;2.78;;;1.42;;
65583;SDS011;70321;43.592;1.456;2023-06-22T07:31:44;2.00;;;1.23;;
65583;SDS011;70321;43.592;1.456;2023-06-22T07:34:09;2.10;;;1.23;;
65583;SDS011;70321;43.592;1.456;2023-06-22T07:36:35;1.42;;;1.08;;
65583;SDS011;70321;43.592;1.456;2023-06-22T07:39:01;3.72;;;1.20;;
65583;SDS011;70321;43.592;1.456;2023-06-22T07:41:29;5.95;;;0.93;;
65583;SDS011;70321;43.592;1.456;2023-06-22T07:43:55;2.97;;;1.00;;
65583;SDS011;70321;43.592;1.456;2023-06-22T07:46:21;1.50;;;0.90;;
65583;SDS011;70321;43.592;1.456;2023-06-22T07:48:47;1.73;;;0.85;;
65583;SDS011;70321;43.592;1.456;2023-06-22T07:51:13;4.70;;;1.02;;
65583;SDS011;70321;43.592;1.456;2023-06-22T07:53:40;0.98;;;0.65;;
65583;SDS011;70321;43.592;1.456;2023-06-22T07:56:07;1.27;;;0.82;;
65583;SDS011;70321;43.592;1.456;2023-06-22T07:58:35;0.80;;;0.40;;
65583;SDS011;70321;43.592;1.456;2023-06-22T08:01:01;1.25;;;0.68;;
65583;SDS011;70321;43.592;1.456;2023-06-22T08:03:26;1.25;;;0.70;;
65583;SDS011;70321;43.592;1.456;2023-06-22T08:05:52;1.98;;;0.98;;
65583;SDS011;70321;43.592;1.456;2023-06-22T08:08:17;5.00;;;0.85;;
65583;SDS011;70321;43.592;1.456;2023-06-22T08:10:42;1.02;;;0.70;;
65583;SDS011;70321;43.592;1.456;2023-06-22T08:13:08;1.48;;;0.75;;
65583;SDS011;70321;43.592;1.456;2023-06-22T08:15:35;1.40;;;0.82;;
65583;SDS011;70321;43.592;1.456;2023-06-22T08:18:00;1.42;;;0.90;;
65583;SDS011;70321;43.592;1.456;2023-06-22T08:20:26;1.02;;;0.70;;
65583;SDS011;70321;43.592;1.456;2023-06-22T08:22:52;2.20;;;0.77;;
65583;SDS011;70321;43.592;1.456;2023-06-22T08:25:19;6.22;;;0.90;;
65583;SDS011;70321;43.592;1.456;2023-06-22T08:27:45;2.72;;;1.20;;
65583;SDS011;70321;43.592;1.456;2023-06-22T08:30:12;1.45;;;0.77;;
65583;SDS011;70321;43.592;1.456;2023-06-22T08:32:37;1.95;;;1.00;;
65583;SDS011;70321;43.592;1.456;2023-06-22T08:35:03;3.30;;;1.10;;
65583;SDS011;70321;43.592;1.456;2023-06-22T08:37:30;1.75;;;1.00;;
65583;SDS011;70321;43.592;1.456;2023-06-22T08:39:57;3.00;;;0.90;;
65583;SDS011;70321;43.592;1.456;2023-06-22T08:42:24;2.42;;;1.20;;
65583;SDS011;70321;43.592;1.456;2023-06-22T08:44:50;1.88;;;1.13;;
65583;SDS011;70321;43.592;1.456;2023-06-22T08:47:16;1.38;;;0.90;;
65583;SDS011;70321;43.592;1.456;2023-06-22T08:49:42;2.45;;;1.00;;
65583;SDS011;70321;43.592;1.456;2023-06-22T08:52:07;2.13;;;1.10;;
65583;SDS011;70321;43.592;1.456;2023-06-22T08:54:33;1.95;;;1.08;;
65583;SDS011;70321;43.592;1.456;2023-06-22T08:56:59;0.47;;;0.45;;
65583;SDS011;70321;43.592;1.456;2023-06-22T08:59:25;0.90;;;0.70;;
65583;SDS011;70321;43.592;1.456;2023-06-22T09:01:51;3.90;;;0.80;;
65583;SDS011;70321;43.592;1.456;2023-06-22T09:04:16;1.05;;;0.60;;
65583;SDS011;70321;43.592;1.456;2023-06-22T09:06:42;6.53;;;1.17;;
65583;SDS011;70321;43.592;1.456;2023-06-22T09:09:10;1.52;;;0.93;;
65583;SDS011;70321;43.592;1.456;2023-06-22T09:11:37;2.45;;;0.88;;
65583;SDS011;70321;43.592;1.456;2023-06-22T09:14:02;5.15;;;0.93;;
65583;SDS011;70321;43.592;1.456;2023-06-22T09:16:29;1.33;;;0.80;;
65583;SDS011;70321;43.592;1.456;2023-06-22T09:18:54;2.00;;;1.00;;
65583;SDS011;70321;43.592;1.456;2023-06-22T09:21:20;4.00;;;0.95;;
65583;SDS011;70321;43.592;1.456;2023-06-22T09:23:45;3.30;;;0.88;;
65583;SDS011;70321;43.592;1.456;2023-06-22T09:26:16;1.92;;;1.02;;
65583;SDS011;70321;43.592;1.456;2023-06-22T09:28:42;2.80;;;1.00;;
65583;SDS011;70321;43.592;1.456;2023-06-22T09:31:08;2.75;;;0.73;;
65583;SDS011;70321;43.592;1.456;2023-06-22T09:33:33;2.05;;;0.68;;
65583;SDS011;70321;43.592;1.456;2023-06-22T09:35:59;1.38;;;0.80;;
65583;SDS011;70321;43.592;1.456;2023-06-22T09:38:24;1.65;;;0.93;;
65583;SDS011;70321;43.592;1.456;2023-06-22T09:40:50;1.42;;;0.90;;
65583;SDS011;70321;43.592;1.456;2023-06-22T09:43:15;1.38;;;0.82;;
65583;SDS011;70321;43.592;1.456;2023-06-22T09:45:40;1.15;;;0.80;;
65583;SDS011;70321;43.592;1.456;2023-06-22T09:48:06;2.05;;;1.17;;
65583;SDS011;70321;43.592;1.456;2023-06-22T09:50:31;4.90;;;1.00;;
65583;SDS011;70321;43.592;1.456;2023-06-22T09:52:57;1.30;;;0.68;;
65583;SDS011;70321;43.592;1.456;2023-06-22T09:55:22;2.63;;;1.00;;
65583;SDS011;70321;43.592;1.456;2023-06-22T09:57:48;1.42;;;0.75;;
65583;SDS011;70321;43.592;1.456;2023-06-22T10:00:15;1.42;;;0.80;;
65583;SDS011;70321;43.592;1.456;2023-06-22T10:02:41;1.85;;;0.95;;
65583;SDS011;70321;43.592;1.456;2023-06-22T10:05:07;1.27;;;0.80;;
65583;SDS011;70321;43.592;1.456;2023-06-22T10:07:41;1.95;;;1.15;;
65583;SDS011;70321;43.592;1.456;2023-06-22T10:10:08;2.08;;;1.10;;
65583;SDS011;70321;43.592;1.456;2023-06-22T10:12:34;1.52;;;0.95;;
65583;SDS011;70321;43.592;1.456;2023-06-22T10:15:00;1.40;;;0.77;;
65583;SDS011;70321;43.592;1.456;2023-06-22T10:17:26;1.40;;;0.85;;
65583;SDS011;70321;43.592;1.456;2023-06-22T10:19:51;4.13;;;0.82;;
65583;SDS011;70321;43.592;1.456;2023-06-22T10:22:16;1.38;;;0.80;;
65583;SDS011;70321;43.592;1.456;2023-06-22T10:24:42;2.63;;;0.80;;
65583;SDS011;70321;43.592;1.456;2023-06-22T10:27:12;1.10;;;0.73;;
65583;SDS011;70321;43.592;1.456;2023-06-22T10:29:38;1.45;;;0.98;;
65583;SDS011;70321;43.592;1.456;2023-06-22T10:32:07;2.92;;;0.77;;
65583;SDS011;70321;43.592;1.456;2023-06-22T10:34:33;3.97;;;1.20;;
65583;SDS011;70321;43.592;1.456;2023-06-22T10:36:59;1.88;;;0.90;;
65583;SDS011;70321;43.592;1.456;2023-06-22T10:39:24;1.55;;;0.98;;
65583;SDS011;70321;43.592;1.456;2023-06-22T10:41:50;1.67;;;1.00;;
65583;SDS011;70321;43.592;1.456;2023-06-22T10:44:15;1.77;;;1.02;;
65583;SDS011;70321;43.592;1.456;2023-06-22T10:46:42;1.50;;;0.93;;
65583;SDS011;70321;43.592;1.456;2023-06-22T10:49:07;1.65;;;0.85;;
65583;SDS011;70321;43.592;1.456;2023-06-22T10:51:33;2.70;;;1.23;;
65583;SDS011;70321;43.592;1.456;2023-06-22T10:53:58;3.70;;;0.90;;
65583;SDS011;70321;43.592;1.456;2023-06-22T10:56:24;1.40;;;0.80;;
65583;SDS011;70321;43.592;1.456;2023-06-22T10:58:50;2.78;;;1.20;;
65583;SDS011;70321;43.592;1.456;2023-06-22T11:01:15;1.58;;;0.90;;
65583;SDS011;70321;43.592;1.456;2023-06-22T11:03:41;1.25;;;0.80;;
65583;SDS011;70321;43.592;1.456;2023-06-22T11:06:09;1.45;;;0.85;;
65583;SDS011;70321;43.592;1.456;2023-06-22T11:08:44;3.15;;;1.13;;
65583;SDS011;70321;43.592;1.456;2023-06-22T11:11:10;1.75;;;1.00;;
65583;SDS011;70321;43.592;1.456;2023-06-22T11:13:35;1.92;;;0.88;;
65583;SDS011;70321;43.592;1.456;2023-06-22T11:16:01;1.63;;;0.88;;
65583;SDS011;70321;43.592;1.456;2023-06-22T11:18:26;1.58;;;1.10;;
65583;SDS011;70321;43.592;1.456;2023-06-22T11:20:52;1.48;;;0.80;;
65583;SDS011;70321;43.592;1.456;2023-06-22T11:23:18;1.20;;;0.85;;
65583;SDS011;70321;43.592;1.456;2023-06-22T11:25:44;1.83;;;1.05;;
65583;SDS011;70321;43.592;1.456;2023-06-22T11:28:12;2.33;;;1.10;;
65583;SDS011;70321;43.592;1.456;2023-06-22T11:30:38;1.42;;;0.85;;
65583;SDS011;70321;43.592;1.456;2023-06-22T11:33:03;1.67;;;0.75;;
65583;SDS011;70321;43.592;1.456;2023-06-22T11:35:28;1.42;;;0.98;;
65583;SDS011;70321;43.592;1.456;2023-06-22T11:37:54;1.25;;;0.80;;
65583;SDS011;70321;43.592;1.456;2023-06-22T11:40:21;2.17;;;0.80;;
65583;SDS011;70321;43.592;1.456;2023-06-22T11:42:48;1.27;;;0.70;;
65583;SDS011;70321;43.592;1.456;2023-06-22T11:45:13;2.63;;;0.85;;
65583;SDS011;70321;43.592;1.456;2023-06-22T11:47:43;1.52;;;0.73;;
65583;SDS011;70321;43.592;1.456;2023-06-22T11:50:08;1.10;;;0.90;;
65583;SDS011;70321;43.592;1.456;2023-06-22T11:52:34;1.27;;;0.88;;
65583;SDS011;70321;43.592;1.456;2023-06-22T11:55:03;2.03;;;1.15;;
65583;SDS011;70321;43.592;1.456;2023-06-22T11:57:32;1.60;;;0.75;;
65583;SDS011;70321;43.592;1.456;2023-06-22T11:59:59;2.85;;;1.30;;
65583;SDS011;70321;43.592;1.456;2023-06-22T12:02:24;1.80;;;0.88;;
65583;SDS011;70321;43.592;1.456;2023-06-22T12:04:50;1.25;;;0.73;;
65583;SDS011;70321;43.592;1.456;2023-06-22T12:07:17;1.65;;;1.00;;
65583;SDS011;70321;43.592;1.456;2023-06-22T12:09:43;2.05;;;0.80;;
65583;SDS011;70321;43.592;1.456;2023-06-22T12:12:09;1.52;;;0.90;;
65583;SDS011;70321;43.592;1.456;2023-06-22T12:14:34;1.05;;;0.50;;
65583;SDS011;70321;43.592;1.456;2023-06-22T12:17:00;1.58;;;0.80;;
65583;SDS011;70321;43.592;1.456;2023-06-22T12:19:26;2.50;;;0.95;;
65583;SDS011;70321;43.592;1.456;2023-06-22T12:23:45;1.48;;;0.82;;
65583;SDS011;70321;43.592;1.456;2023-06-22T12:26:11;1.45;;;0.80;;
65583;SDS011;70321;43.592;1.456;2023-06-22T12:28:36;2.55;;;0.80;;
65583;SDS011;70321;43.592;1.456;2023-06-22T12:31:02;1.48;;;0.90;;
65583;SDS011;70321;43.592;1.456;2023-06-22T12:33:27;1.00;;;0.70;;
65583;SDS011;70321;43.592;1.456;2023-06-22T12:35:52;0.90;;;0.65;;
65583;SDS011;70321;43.592;1.456;2023-06-22T12:38:18;1.02;;;0.60;;
65583;SDS011;70321;43.592;1.456;2023-06-22T12:40:43;1.40;;;0.80;;
65583;SDS011;70321;43.592;1.456;2023-06-22T12:43:09;1.15;;;0.70;;
65583;SDS011;70321;43.592;1.456;2023-06-22T12:45:34;1.35;;;0.60;;
65583;SDS011;70321;43.592;1.456;2023-06-22T12:47:59;1.73;;;0.80;;
65583;SDS011;70321;43.592;1.456;2023-06-22T12:50:25;1.45;;;0.75;;
65583;SDS011;70321;43.592;1.456;2023-06-22T12:52:50;1.58;;;0.88;;
65583;SDS011;70321;43.592;1.456;2023-06-22T12:55:16;0.75;;;0.57;;
65583;SDS011;70321;43.592;1.456;2023-06-22T12:57:41;1.08;;;0.68;;
65583;SDS011;70321;43.592;1.456;2023-06-22T13:00:07;1.05;;;0.63;;
65583;SDS011;70321;43.592;1.456;2023-06-22T13:02:35;1.42;;;0.80;;
65583;SDS011;70321;43.592;1.456;2023-06-22T13:05:01;1.55;;;0.80;;
65583;SDS011;70321;43.592;1.456;2023-06-22T13:07:27;0.93;;;0.77;;
65583;SDS011;70321;43.592;1.456;2023-06-22T13:09:52;0.95;;;0.60;;
65583;SDS011;70321;43.592;1.456;2023-06-22T13:12:19;1.67;;;0.90;;
65583;SDS011;70321;43.592;1.456;2023-06-22T13:14:47;1.15;;;0.90;;
65583;SDS011;70321;43.592;1.456;2023-06-22T13:17:13;0.80;;;0.70;;
65583;SDS011;70321;43.592;1.456;2023-06-22T13:19:39;1.25;;;0.90;;
65583;SDS011;70321;43.592;1.456;2023-06-22T13:22:24;1.25;;;0.75;;
65583;SDS011;70321;43.592;1.456;2023-06-22T13:24:54;1.40;;;0.77;;
65583;SDS011;70321;43.592;1.456;2023-06-22T13:27:20;0.98;;;0.68;;
65583;SDS011;70321;43.592;1.456;2023-06-22T13:29:45;1.63;;;0.82;;
65583;SDS011;70321;43.592;1.456;2023-06-22T13:32:10;1.30;;;0.90;;
65583;SDS011;70321;43.592;1.456;2023-06-22T13:34:36;3.03;;;0.90;;
65583;SDS011;70321;43.592;1.456;2023-06-22T13:37:01;2.67;;;1.10;;
65583;SDS011;70321;43.592;1.456;2023-06-22T13:39:27;0.85;;;0.60;;
65583;SDS011;70321;43.592;1.456;2023-06-22T13:41:52;1.92;;;0.70;;
65583;SDS011;70321;43.592;1.456;2023-06-22T13:44:18;3.75;;;1.00;;
65583;SDS011;70321;43.592;1.456;2023-06-22T13:46:43;2.67;;;1.02;;
65583;SDS011;70321;43.592;1.456;2023-06-22T13:49:09;1.10;;;0.73;;
65583;SDS011;70321;43.592;1.456;2023-06-22T13:51:35;1.38;;;0.85;;
65583;SDS011;70321;43.592;1.456;2023-06-22T13:54:01;1.23;;;0.80;;
65583;SDS011;70321;43.592;1.456;2023-06-22T13:56:26;1.77;;;1.20;;
65583;SDS011;70321;43.592;1.456;2023-06-22T13:58:52;2.33;;;0.95;;
65583;SDS011;70321;43.592;1.456;2023-06-22T14:01:17;1.50;;;0.70;;
65583;SDS011;70321;43.592;1.456;2023-06-22T14:03:43;1.98;;;0.77;;
65583;SDS011;70321;43.592;1.456;2023-06-22T14:06:10;1.38;;;1.00;;
65583;SDS011;70321;43.592;1.456;2023-06-22T14:08:37;1.98;;;0.98;;
65583;SDS011;70321;43.592;1.456;2023-06-22T14:11:02;3.45;;;1.23;;
65583;SDS011;70321;43.592;1.456;2023-06-22T14:13:28;1.70;;;0.98;;
65583;SDS011;70321;43.592;1.456;2023-06-22T14:15:53;1.60;;;0.95;;
65583;SDS011;70321;43.592;1.456;2023-06-22T14:18:19;1.60;;;0.90;;
65583;SDS011;70321;43.592;1.456;2023-06-22T14:20:44;1.77;;;1.00;;
65583;SDS011;70321;43.592;1.456;2023-06-22T14:23:11;1.13;;;0.63;;
65583;SDS011;70321;43.592;1.456;2023-06-22T14:25:36;2.85;;;0.93;;
65583;SDS011;70321;43.592;1.456;2023-06-22T14:28:02;3.72;;;1.38;;
65583;SDS011;70321;43.592;1.456;2023-06-22T14:30:27;2.45;;;1.13;;
65583;SDS011;70321;43.592;1.456;2023-06-22T14:32:52;1.45;;;0.80;;
65583;SDS011;70321;43.592;1.456;2023-06-22T14:35:18;1.48;;;1.00;;
65583;SDS011;70321;43.592;1.456;2023-06-22T14:37:43;1.58;;;0.88;;
65583;SDS011;70321;43.592;1.456;2023-06-22T14:40:10;1.55;;;0.88;;
65583;SDS011;70321;43.592;1.456;2023-06-22T14:42:36;1.27;;;0.75;;
65583;SDS011;70321;43.592;1.456;2023-06-22T14:45:01;2.60;;;1.33;;
65583;SDS011;70321;43.592;1.456;2023-06-22T14:47:26;2.28;;;1.02;;
65583;SDS011;70321;43.592;1.456;2023-06-22T14:49:52;1.80;;;0.98;;
65583;SDS011;70321;43.592;1.456;2023-06-22T14:52:17;1.70;;;0.95;;
65583;SDS011;70321;43.592;1.456;2023-06-22T14:54:43;1.92;;;1.23;;
65583;SDS011;70321;43.592;1.456;2023-06-22T14:57:08;2.58;;;1.02;;